Time;durP1;ratioP1;P1;durP2;ratioP2;P2;SDS_P1;SDS_P2;PMS_P1;PMS_P2;Temp;Humidity;BMP_temperature;BMP_pressure;BME280_temperature;BME280_humidity;BME280_pressure;Samples;Min_cycle;Max_cycle;Signal;HPM_P1;HPM_P2
2021/11/17 02:28:05;;;;;;;15.3;8.1;;;;;;;4.53;100;95500.76;;;;
2021/11/17 02:29:20;;;;;;;15.3;8.1;;;;;;;4.53;100;95500.76;;;;
2021/11/17 02:30:35;;;;;;;15.3;8.1;;;;;;;4.53;100;95500.76;;;;
2021/11/17 02:31:50;;;;;;;15.3;8.1;;;;;;;4.53;100;95500.76;;;;
2021/11/17 02:33:09;;;;;;;15.3;8.1;;;;;;;4.53;100;95500.76;;;;
2021/11/17 02:34:25;;;;;;;15.3;8.1;;;;;;;4.53;100;95500.76;;;;
2021/11/17 02:35:40;;;;;;;15.3;8.1;;;;;;;4.53;100;95500.76;;;;
2021/11/17 02:36:55;;;;;;;15.3;8.1;;;;;;;4.53;100;95500.76;;;;
2021/11/17 02:38:12;;;;;;;15.3;8.1;;;;;;;4.53;100;95500.76;;;;
2021/11/17 02:39:26;;;;;;;15.3;8.1;;;;;;;4.53;100;95500.76;;;;
2021/11/17 02:40:40;;;;;;;15.3;8.1;;;;;;;4.53;100;95500.76;;;;
2021/11/17 02:41:54;;;;;;;15.3;8.1;;;;;;;4.53;100;95500.76;;;;
2021/11/17 02:43:11;;;;;;;15.3;8.1;;;;;;;4.53;100;95500.76;;;;
2021/11/17 02:44:26;;;;;;;15.3;8.1;;;;;;;4.53;100;95500.76;;;;
2021/11/17 02:45:39;;;;;;;15.3;8.1;;;;;;;4.53;100;95500.76;;;;
2021/11/17 02:46:53;;;;;;;15.3;8.1;;;;;;;4.53;100;95500.76;;;;
2021/11/17 02:48:08;;;;;;;15.3;8.1;;;;;;;4.53;100;95500.76;;;;
2021/11/17 02:49:22;;;;;;;15.3;8.1;;;;;;;4.53;100;95500.76;;;;
2021/11/17 02:50:37;;;;;;;15.3;8.1;;;;;;;4.53;100;95500.76;;;;
2021/11/17 02:51:53;;;;;;;15.3;8.1;;;;;;;4.53;100;95500.76;;;;
2021/11/17 02:53:06;;;;;;;15.3;8.1;;;;;;;4.53;100;95500.76;;;;
2021/11/17 02:54:21;;;;;;;15.3;8.1;;;;;;;4.53;100;95500.76;;;;
2021/11/17 02:55:36;;;;;;;15.3;8.1;;;;;;;4.53;100;95500.76;;;;
2021/11/17 02:56:50;;;;;;;15.3;8.1;;;;;;;4.53;100;95500.76;;;;
2021/11/17 02:58:07;;;;;;;15.3;8.1;;;;;;;4.53;100;95500.76;;;;
2021/11/17 02:59:23;;;;;;;15.3;8.1;;;;;;;4.53;100;95500.76;;;;
2021/11/17 03:00:40;;;;;;;16.5;8.950002;;;;;;;4.4;100;95519.4;;;;
2021/11/17 03:02:13;;;;;;;16.5;8.950002;;;;;;;4.4;100;95519.4;;;;
2021/11/17 03:03:56;;;;;;;16.5;8.950002;;;;;;;4.4;100;95519.4;;;;
2021/11/17 03:05:12;;;;;;;16.5;8.950002;;;;;;;4.4;100;95519.4;;;;
2021/11/17 03:06:26;;;;;;;16.5;8.950002;;;;;;;4.4;100;95519.4;;;;
2021/11/17 03:07:40;;;;;;;16.5;8.950002;;;;;;;4.4;100;95519.4;;;;
2021/11/17 03:08:53;;;;;;;16.5;8.950002;;;;;;;4.4;100;95519.4;;;;
2021/11/17 03:10:09;;;;;;;17.75;8.9;;;;;;;4.33;100;95516.77;;;;
2021/11/17 03:11:26;;;;;;;17.75;8.9;;;;;;;4.33;100;95516.77;;;;
2021/11/17 03:12:39;;;;;;;17.75;8.9;;;;;;;4.33;100;95516.77;;;;
2021/11/17 03:13:53;;;;;;;17.75;8.9;;;;;;;4.33;100;95516.77;;;;
2021/11/17 03:15:07;;;;;;;17.75;8.9;;;;;;;4.33;100;95516.77;;;;
2021/11/17 03:16:24;;;;;;;17.75;8.9;;;;;;;4.33;100;95516.77;;;;
2021/11/17 03:17:45;;;;;;;17.75;8.9;;;;;;;4.33;100;95516.77;;;;
2021/11/17 03:18:59;;;;;;;17.75;8.9;;;;;;;4.33;100;95516.77;;;;
2021/11/17 03:20:13;;;;;;;17.75;8.9;;;;;;;4.33;100;95516.77;;;;
2021/11/17 03:21:29;;;;;;;17.9;9.700002;;;;;;;4.29;100;95516.41;;;;
2021/11/17 03:22:59;;;;;;;17.9;9.700002;;;;;;;4.29;100;95516.41;;;;
2021/11/17 03:24:13;;;;;;;17.9;9.700002;;;;;;;4.29;100;95516.41;;;;
2021/11/17 03:25:26;;;;;;;17.9;9.700002;;;;;;;4.29;100;95516.41;;;;
2021/11/17 03:26:41;;;;;;;17.9;9.700002;;;;;;;4.29;100;95516.41;;;;
2021/11/17 03:27:54;;;;;;;17.9;9.700002;;;;;;;4.29;100;95516.41;;;;
2021/11/17 03:29:07;;;;;;;17.9;9.700002;;;;;;;4.29;100;95516.41;;;;
2021/11/17 03:30:24;;;;;;;17.9;9.700002;;;;;;;4.29;100;95516.41;;;;
2021/11/17 03:31:38;;;;;;;18.05;9.3;;;;;;;4.23;100;95517.08;;;;
2021/11/17 03:32:53;;;;;;;18.05;9.3;;;;;;;4.23;100;95517.08;;;;
2021/11/17 03:34:07;;;;;;;18.05;9.3;;;;;;;4.23;100;95517.08;;;;
2021/11/17 03:35:23;;;;;;;18.05;9.3;;;;;;;4.23;100;95517.08;;;;
2021/11/17 03:36:39;;;;;;;18.05;9.3;;;;;;;4.23;100;95517.08;;;;
2021/11/17 03:38:08;;;;;;;18.05;9.3;;;;;;;4.23;100;95517.08;;;;
2021/11/17 03:39:24;;;;;;;18.05;9.3;;;;;;;4.23;100;95517.08;;;;
2021/11/17 03:40:42;;;;;;;18.05;9.3;;;;;;;4.23;100;95517.08;;;;
2021/11/17 03:42:01;;;;;;;18.05;9.3;;;;;;;4.23;100;95517.08;;;;
2021/11/17 03:43:16;;;;;;;20.55;10.4;;;;;;;4.21;100;95511.21;;;;
2021/11/17 03:44:38;;;;;;;20.55;10.4;;;;;;;4.21;100;95511.21;;;;
2021/11/17 03:45:54;;;;;;;20.55;10.4;;;;;;;4.21;100;95511.21;;;;
2021/11/17 03:47:08;;;;;;;20.55;10.4;;;;;;;4.21;100;95511.21;;;;
2021/11/17 03:48:24;;;;;;;20.55;10.4;;;;;;;4.21;100;95511.21;;;;
2021/11/17 03:49:38;;;;;;;20.55;10.4;;;;;;;4.21;100;95511.21;;;;
2021/11/17 03:50:52;;;;;;;20.55;10.4;;;;;;;4.21;100;95511.21;;;;
2021/11/17 03:52:10;;;;;;;20.55;10.4;;;;;;;4.21;100;95511.21;;;;
2021/11/17 03:53:24;;;;;;;21.45;9.9;;;;;;;4.19;100;95535.41;;;;
2021/11/17 03:54:40;;;;;;;21.45;9.9;;;;;;;4.19;100;95535.41;;;;
2021/11/17 03:56:01;;;;;;;21.45;9.9;;;;;;;4.19;100;95535.41;;;;
2021/11/17 03:57:18;;;;;;;21.45;9.9;;;;;;;4.19;100;95535.41;;;;
2021/11/17 03:58:31;;;;;;;21.45;9.9;;;;;;;4.19;100;95535.41;;;;
2021/11/17 03:59:43;;;;;;;21.45;9.9;;;;;;;4.19;100;95535.41;;;;
2021/11/17 04:00:58;;;;;;;21.45;9.9;;;;;;;4.19;100;95535.41;;;;
2021/11/17 04:02:12;;;;;;;21.45;9.9;;;;;;;4.19;100;95535.41;;;;
2021/11/17 04:03:28;;;;;;;20.55;9.799999;;;;;;;4.24;100;95535.28;;;;
2021/11/17 04:04:44;;;;;;;20.55;9.799999;;;;;;;4.24;100;95535.28;;;;
2021/11/17 04:05:56;;;;;;;20.55;9.799999;;;;;;;4.24;100;95535.28;;;;
2021/11/17 04:07:09;;;;;;;20.55;9.799999;;;;;;;4.24;100;95535.28;;;;
2021/11/17 04:08:26;;;;;;;20.55;9.799999;;;;;;;4.24;100;95535.28;;;;
2021/11/17 04:09:41;;;;;;;20.55;9.799999;;;;;;;4.24;100;95535.28;;;;
2021/11/17 04:10:54;;;;;;;20.55;9.799999;;;;;;;4.24;100;95535.28;;;;
2021/11/17 04:12:15;;;;;;;20.55;9.799999;;;;;;;4.24;100;95535.28;;;;
2021/11/17 04:13:29;;;;;;;20.55;9.799999;;;;;;;4.24;100;95535.28;;;;
2021/11/17 04:14:38;;;;;;;20.1;9.9;;;;;;;4.27;100;95534.47;;;;
2021/11/17 04:15:51;;;;;;;20.1;9.9;;;;;;;4.27;100;95534.47;;;;
2021/11/17 04:17:04;;;;;;;20.1;9.9;;;;;;;4.27;100;95534.47;;;;
2021/11/17 04:18:18;;;;;;;20.1;9.9;;;;;;;4.27;100;95534.47;;;;
2021/11/17 04:19:31;;;;;;;20.1;9.9;;;;;;;4.27;100;95534.47;;;;
2021/11/17 04:20:43;;;;;;;20.1;9.9;;;;;;;4.27;100;95534.47;;;;
2021/11/17 04:21:57;;;;;;;20.1;9.9;;;;;;;4.27;100;95534.47;;;;
2021/11/17 04:23:13;;;;;;;20.1;9.9;;;;;;;4.27;100;95534.47;;;;
2021/11/17 04:24:59;;;;;;;20.15;9.8;;;;;;;4.28;100;95542.7;;;;
2021/11/17 04:26:17;;;;;;;20.15;9.8;;;;;;;4.28;100;95542.7;;;;
2021/11/17 04:27:31;;;;;;;20.15;9.8;;;;;;;4.28;100;95542.7;;;;
2021/11/17 04:28:46;;;;;;;20.15;9.8;;;;;;;4.28;100;95542.7;;;;
2021/11/17 04:30:00;;;;;;;20.15;9.8;;;;;;;4.28;100;95542.7;;;;
2021/11/17 04:35:18;;;;;;;20.15;9.8;;;;;;;4.28;100;95542.7;;;;
2021/11/17 04:36:36;;;;;;;20.1;9.349999;;;;;;;4.3;100;95537.7;;;;
2021/11/17 04:37:54;;;;;;;20.1;9.349999;;;;;;;4.3;100;95537.7;;;;
2021/11/17 04:39:10;;;;;;;20.1;9.349999;;;;;;;4.3;100;95537.7;;;;
2021/11/17 04:40:25;;;;;;;20.1;9.349999;;;;;;;4.3;100;95537.7;;;;
2021/11/17 04:41:42;;;;;;;20.1;9.349999;;;;;;;4.3;100;95537.7;;;;
2021/11/17 04:42:57;;;;;;;20.1;9.349999;;;;;;;4.3;100;95537.7;;;;
2021/11/17 04:44:19;;;;;;;20.1;9.349999;;;;;;;4.3;100;95537.7;;;;
2021/11/17 04:45:31;;;;;;;20.1;9.349999;;;;;;;4.3;100;95537.7;;;;
2021/11/17 04:46:45;;;;;;;21.8;10.4;;;;;;;4.26;100;95542.19;;;;
2021/11/17 04:48:00;;;;;;;21.8;10.4;;;;;;;4.26;100;95542.19;;;;
2021/11/17 04:49:14;;;;;;;21.8;10.4;;;;;;;4.26;100;95542.19;;;;
2021/11/17 04:50:28;;;;;;;21.8;10.4;;;;;;;4.26;100;95542.19;;;;
2021/11/17 04:51:49;;;;;;;21.8;10.4;;;;;;;4.26;100;95542.19;;;;
2021/11/17 04:53:07;;;;;;;21.8;10.4;;;;;;;4.26;100;95542.19;;;;
2021/11/17 04:54:21;;;;;;;21.8;10.4;;;;;;;4.26;100;95542.19;;;;
2021/11/17 04:55:36;;;;;;;21.8;10.4;;;;;;;4.26;100;95542.19;;;;
2021/11/17 04:56:49;;;;;;;16.9;9.4;;;;;;;4.23;100;95541.13;;;;
2021/11/17 04:58:05;;;;;;;16.9;9.4;;;;;;;4.23;100;95541.13;;;;
2021/11/17 04:59:20;;;;;;;16.9;9.4;;;;;;;4.23;100;95541.13;;;;
2021/11/17 05:00:35;;;;;;;16.9;9.4;;;;;;;4.23;100;95541.13;;;;
2021/11/17 05:01:50;;;;;;;16.9;9.4;;;;;;;4.23;100;95541.13;;;;
2021/11/17 05:03:04;;;;;;;16.9;9.4;;;;;;;4.23;100;95541.13;;;;
2021/11/17 05:04:17;;;;;;;16.9;9.4;;;;;;;4.23;100;95541.13;;;;
2021/11/17 05:05:31;;;;;;;16.9;9.4;;;;;;;4.23;100;95541.13;;;;
2021/11/17 05:06:47;;;;;;;16.9;9.4;;;;;;;4.23;100;95541.13;;;;
2021/11/17 05:08:02;;;;;;;16.9;9.4;;;;;;;4.23;100;95541.13;;;;
2021/11/17 05:09:11;;;;;;;16.9;9.4;;;;;;;4.23;100;95541.13;;;;
2021/11/17 05:10:21;;;;;;;16.9;9.4;;;;;;;4.23;100;95541.13;;;;
2021/11/17 05:11:38;;;;;;;16.9;9.4;;;;;;;4.23;100;95541.13;;;;
2021/11/17 05:12:49;;;;;;;16.9;9.4;;;;;;;4.23;100;95541.13;;;;
2021/11/17 05:14:01;;;;;;;16.9;9.4;;;;;;;4.23;100;95541.13;;;;
2021/11/17 05:15:11;;;;;;;16.9;9.4;;;;;;;4.23;100;95541.13;;;;
2021/11/17 05:16:23;;;;;;;16.9;9.4;;;;;;;4.23;100;95541.13;;;;
2021/11/17 05:17:36;;;;;;;16.9;9.4;;;;;;;4.23;100;95541.13;;;;
2021/11/17 05:18:48;;;;;;;22;10.6;;;;;;;4.28;100;95545.49;;;;
2021/11/17 05:20:03;;;;;;;22;10.6;;;;;;;4.28;100;95545.49;;;;
2021/11/17 05:21:18;;;;;;;22;10.6;;;;;;;4.28;100;95545.49;;;;
2021/11/17 05:22:32;;;;;;;22;10.6;;;;;;;4.28;100;95545.49;;;;
2021/11/17 05:23:46;;;;;;;22;10.6;;;;;;;4.28;100;95545.49;;;;
2021/11/17 05:25:02;;;;;;;22;10.6;;;;;;;4.28;100;95545.49;;;;
2021/11/17 05:26:15;;;;;;;22;10.6;;;;;;;4.28;100;95545.49;;;;
2021/11/17 05:27:28;;;;;;;22;10.6;;;;;;;4.28;100;95545.49;;;;
2021/11/17 05:28:41;;;;;;;22;10.6;;;;;;;4.28;100;95545.49;;;;
2021/11/17 05:29:55;;;;;;;19.9;10.15;;;;;;;4.32;100;95538.34;;;;
2021/11/17 05:31:10;;;;;;;19.9;10.15;;;;;;;4.32;100;95538.34;;;;
2021/11/17 05:32:24;;;;;;;19.9;10.15;;;;;;;4.32;100;95538.34;;;;
2021/11/17 05:33:41;;;;;;;19.9;10.15;;;;;;;4.32;100;95538.34;;;;
2021/11/17 05:34:57;;;;;;;19.9;10.15;;;;;;;4.32;100;95538.34;;;;
2021/11/17 05:36:12;;;;;;;19.9;10.15;;;;;;;4.32;100;95538.34;;;;
2021/11/17 05:37:23;;;;;;;19.9;10.15;;;;;;;4.32;100;95538.34;;;;
2021/11/17 05:38:35;;;;;;;19.9;10.15;;;;;;;4.32;100;95538.34;;;;
2021/11/17 05:39:48;;;;;;;21.1;10.5;;;;;;;4.26;100;95542.6;;;;
2021/11/17 05:41:06;;;;;;;21.1;10.5;;;;;;;4.26;100;95542.6;;;;
2021/11/17 05:42:19;;;;;;;21.1;10.5;;;;;;;4.26;100;95542.6;;;;
2021/11/17 05:43:32;;;;;;;21.1;10.5;;;;;;;4.26;100;95542.6;;;;
2021/11/17 05:44:45;;;;;;;21.1;10.5;;;;;;;4.26;100;95542.6;;;;
2021/11/17 05:45:58;;;;;;;21.1;10.5;;;;;;;4.26;100;95542.6;;;;
2021/11/17 05:47:11;;;;;;;21.1;10.5;;;;;;;4.26;100;95542.6;;;;
2021/11/17 05:48:25;;;;;;;21.1;10.5;;;;;;;4.26;100;95542.6;;;;
2021/11/17 05:49:37;;;;;;;21.1;10.5;;;;;;;4.26;100;95542.6;;;;
2021/11/17 05:50:51;;;;;;;22.9;10.95;;;;;;;4.24;100;95557.58;;;;
2021/11/17 05:52:06;;;;;;;22.9;10.95;;;;;;;4.24;100;95557.58;;;;
2021/11/17 05:53:23;;;;;;;22.9;10.95;;;;;;;4.24;100;95557.58;;;;
2021/11/17 05:54:38;;;;;;;22.9;10.95;;;;;;;4.24;100;95557.58;;;;
2021/11/17 05:55:55;;;;;;;22.9;10.95;;;;;;;4.24;100;95557.58;;;;
2021/11/17 05:57:09;;;;;;;22.9;10.95;;;;;;;4.24;100;95557.58;;;;
2021/11/17 05:58:24;;;;;;;22.9;10.95;;;;;;;4.24;100;95557.58;;;;
2021/11/17 05:59:39;;;;;;;22.9;10.95;;;;;;;4.24;100;95557.58;;;;
2021/11/17 06:00:53;;;;;;;22.9;11.2;;;;;;;4.22;100;95562.7;;;;
2021/11/17 06:02:08;;;;;;;22.9;11.2;;;;;;;4.22;100;95562.7;;;;
2021/11/17 06:03:20;;;;;;;22.9;11.2;;;;;;;4.22;100;95562.7;;;;
2021/11/17 06:04:32;;;;;;;22.9;11.2;;;;;;;4.22;100;95562.7;;;;
2021/11/17 06:09:33;;;;;;;22.9;11.2;;;;;;;4.22;100;95562.7;;;;
2021/11/17 06:12:35;;;;;;;24.1;11;;;;;;;4.22;100;95572.05;;;;
2021/11/17 06:13:37;;;;;;;24.1;11;;;;;;;4.22;100;95572.05;;;;
2021/11/17 06:14:38;;;;;;;24.1;11;;;;;;;4.22;100;95572.05;;;;
2021/11/17 06:15:42;;;;;;;24.1;11;;;;;;;4.22;100;95572.05;;;;
2021/11/17 06:16:46;;;;;;;24.1;11;;;;;;;4.22;100;95572.05;;;;
2021/11/17 06:17:49;;;;;;;24.1;11;;;;;;;4.22;100;95572.05;;;;
2021/11/17 06:18:53;;;;;;;24.1;11;;;;;;;4.22;100;95572.05;;;;
2021/11/17 06:19:53;;;;;;;24.1;11;;;;;;;4.22;100;95572.05;;;;
2021/11/17 06:20:56;;;;;;;24.1;11;;;;;;;4.22;100;95572.05;;;;
2021/11/17 06:21:58;;;;;;;24.1;11;;;;;;;4.22;100;95572.05;;;;
2021/11/17 06:22:59;;;;;;;24.8;11.2;;;;;;;4.25;100;95565.9;;;;
2021/11/17 06:24:03;;;;;;;24.8;11.2;;;;;;;4.25;100;95565.9;;;;
2021/11/17 06:25:05;;;;;;;24.8;11.2;;;;;;;4.25;100;95565.9;;;;
2021/11/17 06:26:09;;;;;;;24.8;11.2;;;;;;;4.25;100;95565.9;;;;
2021/11/17 06:27:12;;;;;;;24.8;11.2;;;;;;;4.25;100;95565.9;;;;
2021/11/17 06:28:15;;;;;;;24.8;11.2;;;;;;;4.25;100;95565.9;;;;
2021/11/17 06:29:20;;;;;;;24.8;11.2;;;;;;;4.25;100;95565.9;;;;
2021/11/17 06:30:24;;;;;;;24.8;11.2;;;;;;;4.25;100;95565.9;;;;
2021/11/17 06:31:25;;;;;;;24.8;11.2;;;;;;;4.25;100;95565.9;;;;
2021/11/17 06:32:28;;;;;;;24.8;11.2;;;;;;;4.25;100;95565.9;;;;
2021/11/17 06:33:28;;;;;;;23.8;11.9;;;;;;;4.23;100;95578.62;;;;
2021/11/17 06:34:29;;;;;;;23.8;11.9;;;;;;;4.23;100;95578.62;;;;
2021/11/17 06:35:35;;;;;;;23.8;11.9;;;;;;;4.23;100;95578.62;;;;
2021/11/17 06:36:36;;;;;;;23.8;11.9;;;;;;;4.23;100;95578.62;;;;
2021/11/17 06:37:36;;;;;;;23.8;11.9;;;;;;;4.23;100;95578.62;;;;
2021/11/17 06:38:37;;;;;;;23.8;11.9;;;;;;;4.23;100;95578.62;;;;
2021/11/17 06:39:38;;;;;;;23.8;11.9;;;;;;;4.23;100;95578.62;;;;
2021/11/17 06:40:41;;;;;;;23.8;11.9;;;;;;;4.23;100;95578.62;;;;
2021/11/17 06:41:45;;;;;;;23.8;11.9;;;;;;;4.23;100;95578.62;;;;
2021/11/17 06:42:45;;;;;;;23.8;11.9;;;;;;;4.23;100;95578.62;;;;
2021/11/17 06:43:48;;;;;;;23.8;11.9;;;;;;;4.23;100;95578.62;;;;
2021/11/17 06:44:48;;;;;;;23.8;11.9;;;;;;;4.23;100;95578.62;;;;
2021/11/17 06:45:52;;;;;;;23.8;11.9;;;;;;;4.23;100;95578.62;;;;
2021/11/17 06:46:55;;;;;;;23.8;11.9;;;;;;;4.23;100;95578.62;;;;
2021/11/17 06:47:55;;;;;;;23.8;11.9;;;;;;;4.23;100;95578.62;;;;
2021/11/17 06:48:56;;;;;;;23.8;11.9;;;;;;;4.23;100;95578.62;;;;
2021/11/17 06:49:57;;;;;;;23.8;11.9;;;;;;;4.23;100;95578.62;;;;
2021/11/17 06:50:58;;;;;;;23.8;11.9;;;;;;;4.23;100;95578.62;;;;
2021/11/17 06:52:00;;;;;;;23.8;11.9;;;;;;;4.23;100;95578.62;;;;
2021/11/17 06:53:00;;;;;;;23.8;11.9;;;;;;;4.23;100;95578.62;;;;
2021/11/17 06:54:01;;;;;;;23.8;11.9;;;;;;;4.23;100;95578.62;;;;
2021/11/17 06:55:02;;;;;;;22.2;10.7;;;;;;;4.31;100;95604.32;;;;
2021/11/17 06:56:05;;;;;;;22.2;10.7;;;;;;;4.31;100;95604.32;;;;
2021/11/17 06:57:05;;;;;;;22.2;10.7;;;;;;;4.31;100;95604.32;;;;
2021/11/17 06:58:06;;;;;;;22.2;10.7;;;;;;;4.31;100;95604.32;;;;
2021/11/17 06:59:07;;;;;;;22.2;10.7;;;;;;;4.31;100;95604.32;;;;
2021/11/17 07:00:08;;;;;;;22.2;10.7;;;;;;;4.31;100;95604.32;;;;
2021/11/17 07:01:12;;;;;;;22.2;10.7;;;;;;;4.31;100;95604.32;;;;
2021/11/17 07:02:13;;;;;;;22.2;10.7;;;;;;;4.31;100;95604.32;;;;
2021/11/17 07:03:14;;;;;;;22.2;10.7;;;;;;;4.31;100;95604.32;;;;
2021/11/17 07:04:15;;;;;;;22.2;10.7;;;;;;;4.31;100;95604.32;;;;
2021/11/17 07:05:15;;;;;;;21.55;11.2;;;;;;;4.41;100;95608.03;;;;
2021/11/17 07:06:18;;;;;;;21.55;11.2;;;;;;;4.41;100;95608.03;;;;
2021/11/17 07:07:18;;;;;;;21.55;11.2;;;;;;;4.41;100;95608.03;;;;
2021/11/17 07:08:19;;;;;;;21.55;11.2;;;;;;;4.41;100;95608.03;;;;
2021/11/17 07:09:19;;;;;;;21.55;11.2;;;;;;;4.41;100;95608.03;;;;
2021/11/17 07:10:20;;;;;;;21.55;11.2;;;;;;;4.41;100;95608.03;;;;
2021/11/17 07:11:25;;;;;;;21.55;11.2;;;;;;;4.41;100;95608.03;;;;
2021/11/17 07:12:26;;;;;;;21.55;11.2;;;;;;;4.41;100;95608.03;;;;
2021/11/17 07:13:27;;;;;;;21.55;11.2;;;;;;;4.41;100;95608.03;;;;
2021/11/17 07:14:27;;;;;;;21.55;11.2;;;;;;;4.41;100;95608.03;;;;
2021/11/17 07:15:29;;;;;;;20.6;11.05;;;;;;;4.5;100;95614.37;;;;
2021/11/17 07:16:32;;;;;;;20.6;11.05;;;;;;;4.5;100;95614.37;;;;
2021/11/17 07:17:33;;;;;;;20.6;11.05;;;;;;;4.5;100;95614.37;;;;
2021/11/17 07:18:35;;;;;;;20.6;11.05;;;;;;;4.5;100;95614.37;;;;
2021/11/17 07:19:35;;;;;;;20.6;11.05;;;;;;;4.5;100;95614.37;;;;
2021/11/17 07:20:36;;;;;;;20.6;11.05;;;;;;;4.5;100;95614.37;;;;
2021/11/17 07:21:38;;;;;;;20.6;11.05;;;;;;;4.5;100;95614.37;;;;
2021/11/17 07:22:42;;;;;;;20.6;11.05;;;;;;;4.5;100;95614.37;;;;
2021/11/17 07:23:43;;;;;;;20.6;11.05;;;;;;;4.5;100;95614.37;;;;
2021/11/17 07:24:44;;;;;;;20.6;11.05;;;;;;;4.5;100;95614.37;;;;
2021/11/17 07:25:44;;;;;;;20.6;11.05;;;;;;;4.5;100;95614.37;;;;
2021/11/17 07:26:46;;;;;;;24.25;11.15;;;;;;;4.63;100;95623.03;;;;
2021/11/17 07:27:47;;;;;;;24.25;11.15;;;;;;;4.63;100;95623.03;;;;
2021/11/17 07:28:47;;;;;;;24.25;11.15;;;;;;;4.63;100;95623.03;;;;
2021/11/17 07:29:48;;;;;;;24.25;11.15;;;;;;;4.63;100;95623.03;;;;
2021/11/17 07:30:50;;;;;;;24.25;11.15;;;;;;;4.63;100;95623.03;;;;
2021/11/17 07:31:51;;;;;;;24.25;11.15;;;;;;;4.63;100;95623.03;;;;
2021/11/17 07:32:51;;;;;;;24.25;11.15;;;;;;;4.63;100;95623.03;;;;
2021/11/17 07:33:52;;;;;;;24.25;11.15;;;;;;;4.63;100;95623.03;;;;
2021/11/17 07:34:53;;;;;;;24.25;11.15;;;;;;;4.63;100;95623.03;;;;
2021/11/17 07:35:54;;;;;;;24.25;11.15;;;;;;;4.63;100;95623.03;;;;
2021/11/17 07:36:54;;;;;;;23.15;11.85;;;;;;;4.78;100;95626.9;;;;
2021/11/17 07:38:00;;;;;;;23.15;11.85;;;;;;;4.78;100;95626.9;;;;
2021/11/17 07:39:03;;;;;;;23.15;11.85;;;;;;;4.78;100;95626.9;;;;
2021/11/17 07:40:05;;;;;;;23.15;11.85;;;;;;;4.78;100;95626.9;;;;
2021/11/17 07:41:09;;;;;;;23.15;11.85;;;;;;;4.78;100;95626.9;;;;
2021/11/17 07:42:10;;;;;;;23.15;11.85;;;;;;;4.78;100;95626.9;;;;
2021/11/17 07:43:11;;;;;;;23.15;11.85;;;;;;;4.78;100;95626.9;;;;
2021/11/17 07:44:16;;;;;;;23.15;11.85;;;;;;;4.78;100;95626.9;;;;
2021/11/17 07:45:18;;;;;;;23.15;11.85;;;;;;;4.78;100;95626.9;;;;
2021/11/17 07:46:19;;;;;;;23.15;11.85;;;;;;;4.78;100;95626.9;;;;
2021/11/17 07:47:20;;;;;;;23.15;11.85;;;;;;;4.78;100;95626.9;;;;
2021/11/17 07:48:20;;;;;;;20.6;10.5;;;;;;;4.95;100;95631.36;;;;
2021/11/17 07:49:23;;;;;;;20.6;10.5;;;;;;;4.95;100;95631.36;;;;
2021/11/17 07:50:26;;;;;;;20.6;10.5;;;;;;;4.95;100;95631.36;;;;
2021/11/17 07:51:28;;;;;;;20.6;10.5;;;;;;;4.95;100;95631.36;;;;
2021/11/17 07:52:28;;;;;;;20.6;10.5;;;;;;;4.95;100;95631.36;;;;
2021/11/17 07:53:29;;;;;;;20.6;10.5;;;;;;;4.95;100;95631.36;;;;
2021/11/17 07:54:31;;;;;;;20.6;10.5;;;;;;;4.95;100;95631.36;;;;
2021/11/17 07:55:32;;;;;;;20.6;10.5;;;;;;;4.95;100;95631.36;;;;
2021/11/17 07:56:32;;;;;;;20.6;10.5;;;;;;;4.95;100;95631.36;;;;
2021/11/17 07:57:35;;;;;;;20.6;10.5;;;;;;;4.95;100;95631.36;;;;
2021/11/17 07:58:37;;;;;;;18.25;10.55;;;;;;;5.2;100;95639.79;;;;
2021/11/17 07:59:42;;;;;;;18.25;10.55;;;;;;;5.2;100;95639.79;;;;
2021/11/17 08:00:42;;;;;;;18.25;10.55;;;;;;;5.2;100;95639.79;;;;
2021/11/17 08:01:49;;;;;;;18.25;10.55;;;;;;;5.2;100;95639.79;;;;
2021/11/17 08:02:51;;;;;;;18.25;10.55;;;;;;;5.2;100;95639.79;;;;
2021/11/17 08:03:52;;;;;;;18.25;10.55;;;;;;;5.2;100;95639.79;;;;
2021/11/17 08:04:53;;;;;;;18.25;10.55;;;;;;;5.2;100;95639.79;;;;
2021/11/17 08:05:54;;;;;;;18.25;10.55;;;;;;;5.2;100;95639.79;;;;
2021/11/17 08:06:55;;;;;;;18.25;10.55;;;;;;;5.2;100;95639.79;;;;
2021/11/17 08:07:56;;;;;;;18.25;10.55;;;;;;;5.2;100;95639.79;;;;
2021/11/17 08:08:57;;;;;;;18.2;10.8;;;;;;;5.37;100;95652.38;;;;
2021/11/17 08:09:58;;;;;;;18.2;10.8;;;;;;;5.37;100;95652.38;;;;
2021/11/17 08:10:59;;;;;;;18.2;10.8;;;;;;;5.37;100;95652.38;;;;
2021/11/17 08:12:01;;;;;;;18.2;10.8;;;;;;;5.37;100;95652.38;;;;
2021/11/17 08:13:02;;;;;;;18.2;10.8;;;;;;;5.37;100;95652.38;;;;
2021/11/17 08:14:03;;;;;;;18.2;10.8;;;;;;;5.37;100;95652.38;;;;
2021/11/17 08:15:04;;;;;;;18.2;10.8;;;;;;;5.37;100;95652.38;;;;
2021/11/17 08:16:06;;;;;;;18.2;10.8;;;;;;;5.37;100;95652.38;;;;
2021/11/17 08:17:08;;;;;;;18.2;10.8;;;;;;;5.37;100;95652.38;;;;
2021/11/17 08:18:08;;;;;;;18.2;10.8;;;;;;;5.37;100;95652.38;;;;
2021/11/17 08:19:09;;;;;;;18.2;10.8;;;;;;;5.37;100;95652.38;;;;
2021/11/17 08:20:11;;;;;;;17;9.75;;;;;;;5.54;100;95664.47;;;;
2021/11/17 08:21:15;;;;;;;17;9.75;;;;;;;5.54;100;95664.47;;;;
2021/11/17 08:22:17;;;;;;;17;9.75;;;;;;;5.54;100;95664.47;;;;
2021/11/17 08:23:17;;;;;;;17;9.75;;;;;;;5.54;100;95664.47;;;;
2021/11/17 08:24:19;;;;;;;17;9.75;;;;;;;5.54;100;95664.47;;;;
2021/11/17 08:25:19;;;;;;;17;9.75;;;;;;;5.54;100;95664.47;;;;
2021/11/17 08:26:23;;;;;;;17;9.75;;;;;;;5.54;100;95664.47;;;;
2021/11/17 08:27:24;;;;;;;17;9.75;;;;;;;5.54;100;95664.47;;;;
2021/11/17 08:28:25;;;;;;;17;9.75;;;;;;;5.54;100;95664.47;;;;
2021/11/17 08:29:27;;;;;;;17;9.75;;;;;;;5.54;100;95664.47;;;;
2021/11/17 08:30:27;;;;;;;18.9;11.5;;;;;;;5.77;100;95669.46;;;;
2021/11/17 08:31:32;;;;;;;18.9;11.5;;;;;;;5.77;100;95669.46;;;;
2021/11/17 08:32:32;;;;;;;18.9;11.5;;;;;;;5.77;100;95669.46;;;;
2021/11/17 08:33:33;;;;;;;18.9;11.5;;;;;;;5.77;100;95669.46;;;;
2021/11/17 08:34:35;;;;;;;18.9;11.5;;;;;;;5.77;100;95669.46;;;;
2021/11/17 08:35:35;;;;;;;18.9;11.5;;;;;;;5.77;100;95669.46;;;;
2021/11/17 08:36:36;;;;;;;18.9;11.5;;;;;;;5.77;100;95669.46;;;;
2021/11/17 08:37:37;;;;;;;18.9;11.5;;;;;;;5.77;100;95669.46;;;;
2021/11/17 08:38:38;;;;;;;18.9;11.5;;;;;;;5.77;100;95669.46;;;;
2021/11/17 08:39:41;;;;;;;18.9;11.5;;;;;;;5.77;100;95669.46;;;;
2021/11/17 08:40:42;;;;;;;18.9;11.5;;;;;;;5.77;100;95669.46;;;;
2021/11/17 08:41:46;;;;;;;16.6;11.05;;;;;;;6.09;100;95681.83;;;;
2021/11/17 08:42:46;;;;;;;16.6;11.05;;;;;;;6.09;100;95681.83;;;;
2021/11/17 08:43:47;;;;;;;16.6;11.05;;;;;;;6.09;100;95681.83;;;;
2021/11/17 08:44:47;;;;;;;16.6;11.05;;;;;;;6.09;100;95681.83;;;;
2021/11/17 08:45:48;;;;;;;16.6;11.05;;;;;;;6.09;100;95681.83;;;;
2021/11/17 08:46:50;;;;;;;16.6;11.05;;;;;;;6.09;100;95681.83;;;;
2021/11/17 08:47:51;;;;;;;16.6;11.05;;;;;;;6.09;100;95681.83;;;;
2021/11/17 08:48:54;;;;;;;16.6;11.05;;;;;;;6.09;100;95681.83;;;;
2021/11/17 08:49:55;;;;;;;16.6;11.05;;;;;;;6.09;100;95681.83;;;;
2021/11/17 08:50:55;;;;;;;16.6;11.05;;;;;;;6.09;100;95681.83;;;;
2021/11/17 08:51:59;;;;;;;16.5;11;;;;;;;6.12;100;95708.64;;;;
2021/11/17 08:52:59;;;;;;;16.5;11;;;;;;;6.12;100;95708.64;;;;
2021/11/17 08:54:02;;;;;;;16.5;11;;;;;;;6.12;100;95708.64;;;;
2021/11/17 08:55:04;;;;;;;16.5;11;;;;;;;6.12;100;95708.64;;;;
2021/11/17 08:56:06;;;;;;;16.5;11;;;;;;;6.12;100;95708.64;;;;
2021/11/17 08:57:09;;;;;;;16.5;11;;;;;;;6.12;100;95708.64;;;;
2021/11/17 08:58:09;;;;;;;16.5;11;;;;;;;6.12;100;95708.64;;;;
2021/11/17 08:59:12;;;;;;;16.5;11;;;;;;;6.12;100;95708.64;;;;
2021/11/17 09:00:12;;;;;;;16.5;11;;;;;;;6.12;100;95708.64;;;;
2021/11/17 09:01:17;;;;;;;16.5;11;;;;;;;6.12;100;95708.64;;;;
2021/11/17 09:02:18;;;;;;;15.6;11.45;;;;;;;6.17;100;95705.27;;;;
2021/11/17 09:03:19;;;;;;;15.6;11.45;;;;;;;6.17;100;95705.27;;;;
2021/11/17 09:04:20;;;;;;;15.6;11.45;;;;;;;6.17;100;95705.27;;;;
2021/11/17 09:05:20;;;;;;;15.6;11.45;;;;;;;6.17;100;95705.27;;;;
2021/11/17 09:06:24;;;;;;;15.6;11.45;;;;;;;6.17;100;95705.27;;;;
2021/11/17 09:07:25;;;;;;;15.6;11.45;;;;;;;6.17;100;95705.27;;;;
2021/11/17 09:08:25;;;;;;;15.6;11.45;;;;;;;6.17;100;95705.27;;;;
2021/11/17 09:09:26;;;;;;;15.6;11.45;;;;;;;6.17;100;95705.27;;;;
2021/11/17 09:10:27;;;;;;;15.6;11.45;;;;;;;6.17;100;95705.27;;;;
2021/11/17 09:11:30;;;;;;;15.6;11.45;;;;;;;6.17;100;95705.27;;;;
2021/11/17 09:12:32;;;;;;;15.6;11.45;;;;;;;6.17;100;95705.27;;;;
2021/11/17 09:13:33;;;;;;;17.35;11.6;;;;;;;6.24;100;95719.65;;;;
2021/11/17 09:14:36;;;;;;;17.35;11.6;;;;;;;6.24;100;95719.65;;;;
2021/11/17 09:15:37;;;;;;;17.35;11.6;;;;;;;6.24;100;95719.65;;;;
2021/11/17 09:16:41;;;;;;;17.35;11.6;;;;;;;6.24;100;95719.65;;;;
2021/11/17 09:17:43;;;;;;;17.35;11.6;;;;;;;6.24;100;95719.65;;;;
2021/11/17 09:18:44;;;;;;;17.35;11.6;;;;;;;6.24;100;95719.65;;;;
2021/11/17 09:19:45;;;;;;;17.35;11.6;;;;;;;6.24;100;95719.65;;;;
2021/11/17 09:20:45;;;;;;;17.35;11.6;;;;;;;6.24;100;95719.65;;;;
2021/11/17 09:21:46;;;;;;;17.35;11.6;;;;;;;6.24;100;95719.65;;;;
2021/11/17 09:22:49;;;;;;;17.35;11.6;;;;;;;6.24;100;95719.65;;;;
2021/11/17 09:23:51;;;;;;;16.75;12.2;;;;;;;6.37;100;95717.01;;;;
2021/11/17 09:24:51;;;;;;;16.75;12.2;;;;;;;6.37;100;95717.01;;;;
2021/11/17 09:25:52;;;;;;;16.75;12.2;;;;;;;6.37;100;95717.01;;;;
2021/11/17 09:26:53;;;;;;;16.75;12.2;;;;;;;6.37;100;95717.01;;;;
2021/11/17 09:27:54;;;;;;;16.75;12.2;;;;;;;6.37;100;95717.01;;;;
2021/11/17 09:28:56;;;;;;;16.75;12.2;;;;;;;6.37;100;95717.01;;;;
2021/11/17 09:29:58;;;;;;;16.75;12.2;;;;;;;6.37;100;95717.01;;;;
2021/11/17 09:30:59;;;;;;;16.75;12.2;;;;;;;6.37;100;95717.01;;;;
2021/11/17 09:32:01;;;;;;;16.75;12.2;;;;;;;6.37;100;95717.01;;;;
2021/11/17 09:33:03;;;;;;;16.75;12.2;;;;;;;6.37;100;95717.01;;;;
2021/11/17 09:34:05;;;;;;;16.75;12.2;;;;;;;6.37;100;95717.01;;;;
2021/11/17 09:35:06;;;;;;;16.05;11.25;;;;;;;6.47;100;95730.39;;;;
2021/11/17 09:36:11;;;;;;;16.05;11.25;;;;;;;6.47;100;95730.39;;;;